sensor_id;sensor_type;location;lat;lon;timestamp;temperature;humidity
42099;DHT22;27758;55.900;8.516;2022-09-25T00:00:43;8.60;99.90
42099;DHT22;27758;55.900;8.516;2022-09-25T00:03:09;8.50;99.90
42099;DHT22;27758;55.900;8.516;2022-09-25T00:05:40;8.50;99.90
42099;DHT22;27758;55.900;8.516;2022-09-25T00:08:07;8.50;99.90
42099;DHT22;27758;55.900;8.516;2022-09-25T00:10:33;8.30;99.90
42099;DHT22;27758;55.900;8.516;2022-09-25T00:12:59;8.30;99.90
42099;DHT22;27758;55.900;8.516;2022-09-25T00:15:25;8.40;99.90
42099;DHT22;27758;55.900;8.516;2022-09-25T00:17:51;8.30;99.90
42099;DHT22;27758;55.900;8.516;2022-09-25T00:20:18;8.30;99.90
42099;DHT22;27758;55.900;8.516;2022-09-25T00:22:49;8.20;99.90
42099;DHT22;27758;55.900;8.516;2022-09-25T00:25:15;8.20;99.90
42099;DHT22;27758;55.900;8.516;2022-09-25T00:27:43;8.20;99.90
42099;DHT22;27758;55.900;8.516;2022-09-25T00:30:12;8.10;99.90
42099;DHT22;27758;55.900;8.516;2022-09-25T00:32:39;8.20;99.90
42099;DHT22;27758;55.900;8.516;2022-09-25T00:35:05;8.20;99.90
42099;DHT22;27758;55.900;8.516;2022-09-25T00:37:37;8.10;99.90
42099;DHT22;27758;55.900;8.516;2022-09-25T00:40:04;8.10;99.90
42099;DHT22;27758;55.900;8.516;2022-09-25T00:42:30;8.10;99.90
42099;DHT22;27758;55.900;8.516;2022-09-25T00:50:24;8.10;99.90
42099;DHT22;27758;55.900;8.516;2022-09-25T00:52:52;8.00;99.90
42099;DHT22;27758;55.900;8.516;2022-09-25T00:55:21;7.90;99.90
42099;DHT22;27758;55.900;8.516;2022-09-25T00:57:53;7.80;99.90
42099;DHT22;27758;55.900;8.516;2022-09-25T01:00:21;7.80;99.90
42099;DHT22;27758;55.900;8.516;2022-09-25T01:02:51;7.70;99.90
42099;DHT22;27758;55.900;8.516;2022-09-25T01:05:24;7.70;99.90
42099;DHT22;27758;55.900;8.516;2022-09-25T01:07:51;7.80;99.90
42099;DHT22;27758;55.900;8.516;2022-09-25T01:10:19;7.80;99.90
42099;DHT22;27758;55.900;8.516;2022-09-25T01:12:47;7.80;99.90
42099;DHT22;27758;55.900;8.516;2022-09-25T01:15:16;7.80;99.90
42099;DHT22;27758;55.900;8.516;2022-09-25T01:30:53;8.20;99.90
42099;DHT22;27758;55.900;8.516;2022-09-25T01:33:34;8.30;99.90
42099;DHT22;27758;55.900;8.516;2022-09-25T01:38:49;8.30;99.90
42099;DHT22;27758;55.900;8.516;2022-09-25T01:43:53;8.50;99.90
42099;DHT22;27758;55.900;8.516;2022-09-25T01:46:25;8.50;99.90
42099;DHT22;27758;55.900;8.516;2022-09-25T01:48:56;8.50;99.90
42099;DHT22;27758;55.900;8.516;2022-09-25T01:51:47;8.50;99.90
42099;DHT22;27758;55.900;8.516;2022-09-25T01:54:19;8.50;99.90
42099;DHT22;27758;55.900;8.516;2022-09-25T01:56:56;8.60;99.90
42099;DHT22;27758;55.900;8.516;2022-09-25T01:59:44;8.60;99.90
42099;DHT22;27758;55.900;8.516;2022-09-25T02:02:13;8.60;99.90
42099;DHT22;27758;55.900;8.516;2022-09-25T02:04:54;8.60;99.90
42099;DHT22;27758;55.900;8.516;2022-09-25T02:07:26;8.60;99.90
42099;DHT22;27758;55.900;8.516;2022-09-25T02:09:57;8.60;99.90
42099;DHT22;27758;55.900;8.516;2022-09-25T02:12:30;8.70;99.90
42099;DHT22;27758;55.900;8.516;2022-09-25T02:15:02;8.70;99.90
42099;DHT22;27758;55.900;8.516;2022-09-25T02:17:56;8.70;99.90
42099;DHT22;27758;55.900;8.516;2022-09-25T02:20:38;8.70;99.90
42099;DHT22;27758;55.900;8.516;2022-09-25T02:23:22;8.70;99.90
42099;DHT22;27758;55.900;8.516;2022-09-25T02:26:10;8.60;99.90
42099;DHT22;27758;55.900;8.516;2022-09-25T02:28:39;8.50;99.90
42099;DHT22;27758;55.900;8.516;2022-09-25T02:31:09;8.50;99.90
42099;DHT22;27758;55.900;8.516;2022-09-25T02:33:35;8.40;99.90
42099;DHT22;27758;55.900;8.516;2022-09-25T02:36:03;8.40;99.90
42099;DHT22;27758;55.900;8.516;2022-09-25T02:38:29;8.50;99.90
42099;DHT22;27758;55.900;8.516;2022-09-25T02:41:28;8.30;99.90
42099;DHT22;27758;55.900;8.516;2022-09-25T02:47:05;8.30;99.90
42099;DHT22;27758;55.900;8.516;2022-09-25T02:50:10;8.20;99.90
42099;DHT22;27758;55.900;8.516;2022-09-25T02:55:48;8.10;99.90
42099;DHT22;27758;55.900;8.516;2022-09-25T03:00:51;8.00;99.90
42099;DHT22;27758;55.900;8.516;2022-09-25T03:03:19;7.90;99.90
42099;DHT22;27758;55.900;8.516;2022-09-25T03:05:50;7.90;99.90
42099;DHT22;27758;55.900;8.516;2022-09-25T03:08:17;7.90;99.90
42099;DHT22;27758;55.900;8.516;2022-09-25T03:11:10;7.80;99.90
42099;DHT22;27758;55.900;8.516;2022-09-25T03:13:37;7.80;99.90
42099;DHT22;27758;55.900;8.516;2022-09-25T03:16:29;7.80;99.90
42099;DHT22;27758;55.900;8.516;2022-09-25T03:18:56;7.70;99.90
42099;DHT22;27758;55.900;8.516;2022-09-25T03:21:22;7.60;99.90
42099;DHT22;27758;55.900;8.516;2022-09-25T03:23:47;7.50;99.90
42099;DHT22;27758;55.900;8.516;2022-09-25T03:26:13;7.50;99.90
42099;DHT22;27758;55.900;8.516;2022-09-25T03:28:39;7.40;99.90
42099;DHT22;27758;55.900;8.516;2022-09-25T03:31:07;7.40;99.90
42099;DHT22;27758;55.900;8.516;2022-09-25T03:33:37;7.30;99.90
42099;DHT22;27758;55.900;8.516;2022-09-25T03:36:18;7.30;99.90
42099;DHT22;27758;55.900;8.516;2022-09-25T03:38:46;7.30;99.90
42099;DHT22;27758;55.900;8.516;2022-09-25T03:41:14;7.30;99.90
42099;DHT22;27758;55.900;8.516;2022-09-25T03:43:42;7.20;99.90
42099;DHT22;27758;55.900;8.516;2022-09-25T03:46:10;7.20;99.90
42099;DHT22;27758;55.900;8.516;2022-09-25T03:48:37;7.20;99.90
42099;DHT22;27758;55.900;8.516;2022-09-25T03:51:04;7.10;99.90
42099;DHT22;27758;55.900;8.516;2022-09-25T03:53:30;7.10;99.90
42099;DHT22;27758;55.900;8.516;2022-09-25T03:56:11;7.10;99.90
42099;DHT22;27758;55.900;8.516;2022-09-25T03:58:37;7.00;99.90
42099;DHT22;27758;55.900;8.516;2022-09-25T04:01:03;7.00;99.90
42099;DHT22;27758;55.900;8.516;2022-09-25T04:03:30;7.00;99.90
42099;DHT22;27758;55.900;8.516;2022-09-25T04:05:59;7.00;99.90
42099;DHT22;27758;55.900;8.516;2022-09-25T04:08:27;6.90;99.90
42099;DHT22;27758;55.900;8.516;2022-09-25T04:10:54;6.90;99.90
42099;DHT22;27758;55.900;8.516;2022-09-25T04:13:33;6.90;99.90
42099;DHT22;27758;55.900;8.516;2022-09-25T04:16:01;6.90;99.90
42099;DHT22;27758;55.900;8.516;2022-09-25T04:18:28;6.90;99.90
42099;DHT22;27758;55.900;8.516;2022-09-25T04:21:06;6.90;99.90
42099;DHT22;27758;55.900;8.516;2022-09-25T04:23:33;6.90;99.90
42099;DHT22;27758;55.900;8.516;2022-09-25T04:25:59;6.90;99.90
42099;DHT22;27758;55.900;8.516;2022-09-25T04:28:25;6.80;99.90
42099;DHT22;27758;55.900;8.516;2022-09-25T04:30:51;6.80;99.90
42099;DHT22;27758;55.900;8.516;2022-09-25T04:33:18;6.70;99.90
42099;DHT22;27758;55.900;8.516;2022-09-25T04:36:03;6.60;99.90
42099;DHT22;27758;55.900;8.516;2022-09-25T04:38:29;6.60;99.90
42099;DHT22;27758;55.900;8.516;2022-09-25T04:40:59;6.50;99.90
42099;DHT22;27758;55.900;8.516;2022-09-25T04:43:29;6.50;99.90
42099;DHT22;27758;55.900;8.516;2022-09-25T04:46:00;6.50;99.90
42099;DHT22;27758;55.900;8.516;2022-09-25T04:48:26;6.50;99.90
42099;DHT22;27758;55.900;8.516;2022-09-25T04:50:51;6.50;99.90
42099;DHT22;27758;55.900;8.516;2022-09-25T04:53:17;6.50;99.90
42099;DHT22;27758;55.900;8.516;2022-09-25T04:55:43;6.40;99.90
42099;DHT22;27758;55.900;8.516;2022-09-25T04:58:10;6.40;99.90
42099;DHT22;27758;55.900;8.516;2022-09-25T05:00:36;6.30;99.90
42099;DHT22;27758;55.900;8.516;2022-09-25T05:03:04;6.30;99.90
42099;DHT22;27758;55.900;8.516;2022-09-25T05:05:30;6.20;99.90
42099;DHT22;27758;55.900;8.516;2022-09-25T05:07:58;6.20;99.90
42099;DHT22;27758;55.900;8.516;2022-09-25T05:10:27;6.20;99.90
42099;DHT22;27758;55.900;8.516;2022-09-25T05:12:57;6.10;99.90
42099;DHT22;27758;55.900;8.516;2022-09-25T05:15:25;6.10;99.90
42099;DHT22;27758;55.900;8.516;2022-09-25T05:17:59;6.10;99.90
42099;DHT22;27758;55.900;8.516;2022-09-25T05:20:24;6.10;99.90
42099;DHT22;27758;55.900;8.516;2022-09-25T05:22:54;6.10;99.90
42099;DHT22;27758;55.900;8.516;2022-09-25T05:25:20;6.10;99.90
42099;DHT22;27758;55.900;8.516;2022-09-25T05:27:48;6.10;99.90
42099;DHT22;27758;55.900;8.516;2022-09-25T05:30:15;6.10;99.90
42099;DHT22;27758;55.900;8.516;2022-09-25T05:32:51;6.00;99.90
42099;DHT22;27758;55.900;8.516;2022-09-25T05:35:20;6.10;99.90
42099;DHT22;27758;55.900;8.516;2022-09-25T05:37:46;6.10;99.90
42099;DHT22;27758;55.900;8.516;2022-09-25T05:40:13;6.10;99.90
42099;DHT22;27758;55.900;8.516;2022-09-25T05:42:43;6.20;99.90
42099;DHT22;27758;55.900;8.516;2022-09-25T05:45:12;6.20;99.90
42099;DHT22;27758;55.900;8.516;2022-09-25T05:47:39;6.20;99.90
42099;DHT22;27758;55.900;8.516;2022-09-25T05:50:06;6.20;99.90
42099;DHT22;27758;55.900;8.516;2022-09-25T05:52:34;6.30;99.90
42099;DHT22;27758;55.900;8.516;2022-09-25T05:55:00;6.30;99.90
42099;DHT22;27758;55.900;8.516;2022-09-25T05:57:32;6.30;99.90
42099;DHT22;27758;55.900;8.516;2022-09-25T05:59:58;6.30;99.90
42099;DHT22;27758;55.900;8.516;2022-09-25T06:02:24;6.30;99.90
42099;DHT22;27758;55.900;8.516;2022-09-25T06:04:50;6.40;99.90
42099;DHT22;27758;55.900;8.516;2022-09-25T06:07:16;6.60;99.90
42099;DHT22;27758;55.900;8.516;2022-09-25T06:09:42;6.70;99.90
42099;DHT22;27758;55.900;8.516;2022-09-25T06:12:08;6.80;99.90
42099;DHT22;27758;55.900;8.516;2022-09-25T06:14:33;6.90;99.90
42099;DHT22;27758;55.900;8.516;2022-09-25T06:17:01;7.10;99.90
42099;DHT22;27758;55.900;8.516;2022-09-25T06:19:26;7.20;99.90
42099;DHT22;27758;55.900;8.516;2022-09-25T06:21:55;7.30;99.90
42099;DHT22;27758;55.900;8.516;2022-09-25T06:24:23;7.50;99.90
42099;DHT22;27758;55.900;8.516;2022-09-25T06:26:49;7.70;99.90
42099;DHT22;27758;55.900;8.516;2022-09-25T06:29:15;7.80;99.90
42099;DHT22;27758;55.900;8.516;2022-09-25T06:31:40;8.00;99.90
42099;DHT22;27758;55.900;8.516;2022-09-25T06:34:08;8.20;99.90
42099;DHT22;27758;55.900;8.516;2022-09-25T06:36:34;8.30;99.90
42099;DHT22;27758;55.900;8.516;2022-09-25T06:38:59;8.50;99.90
42099;DHT22;27758;55.900;8.516;2022-09-25T06:41:25;8.80;99.90
42099;DHT22;27758;55.900;8.516;2022-09-25T06:43:51;9.00;99.90
42099;DHT22;27758;55.900;8.516;2022-09-25T06:46:18;9.20;99.90
42099;DHT22;27758;55.900;8.516;2022-09-25T06:48:55;9.40;99.90
42099;DHT22;27758;55.900;8.516;2022-09-25T06:51:24;9.60;99.90
42099;DHT22;27758;55.900;8.516;2022-09-25T06:53:53;9.80;99.90
42099;DHT22;27758;55.900;8.516;2022-09-25T06:56:19;10.20;99.90
42099;DHT22;27758;55.900;8.516;2022-09-25T06:58:45;10.40;99.90
42099;DHT22;27758;55.900;8.516;2022-09-25T07:01:11;10.70;99.90
42099;DHT22;27758;55.900;8.516;2022-09-25T07:03:38;10.90;99.90
42099;DHT22;27758;55.900;8.516;2022-09-25T07:06:17;11.20;99.90
42099;DHT22;27758;55.900;8.516;2022-09-25T07:08:44;11.50;99.90
42099;DHT22;27758;55.900;8.516;2022-09-25T07:11:21;11.70;99.90
42099;DHT22;27758;55.900;8.516;2022-09-25T07:13:47;12.00;99.90
42099;DHT22;27758;55.900;8.516;2022-09-25T07:16:21;12.10;99.90
42099;DHT22;27758;55.900;8.516;2022-09-25T07:18:47;12.40;99.90
42099;DHT22;27758;55.900;8.516;2022-09-25T07:21:15;12.50;99.90
42099;DHT22;27758;55.900;8.516;2022-09-25T07:23:41;12.70;99.90
42099;DHT22;27758;55.900;8.516;2022-09-25T07:26:10;13.00;99.90
42099;DHT22;27758;55.900;8.516;2022-09-25T07:28:38;13.30;99.90
42099;DHT22;27758;55.900;8.516;2022-09-25T07:31:18;13.60;99.90
42099;DHT22;27758;55.900;8.516;2022-09-25T07:33:45;14.00;99.90
42099;DHT22;27758;55.900;8.516;2022-09-25T07:36:11;14.30;99.90
42099;DHT22;27758;55.900;8.516;2022-09-25T07:38:38;14.60;99.90
42099;DHT22;27758;55.900;8.516;2022-09-25T07:41:05;15.00;99.90
42099;DHT22;27758;55.900;8.516;2022-09-25T07:43:32;15.30;99.90
42099;DHT22;27758;55.900;8.516;2022-09-25T07:45:59;15.70;99.90
42099;DHT22;27758;55.900;8.516;2022-09-25T07:48:26;16.00;99.90
42099;DHT22;27758;55.900;8.516;2022-09-25T07:50:52;16.50;99.90
42099;DHT22;27758;55.900;8.516;2022-09-25T07:53:20;16.70;99.90
42099;DHT22;27758;55.900;8.516;2022-09-25T07:55:46;17.10;99.90
42099;DHT22;27758;55.900;8.516;2022-09-25T07:58:12;17.40;99.90
42099;DHT22;27758;55.900;8.516;2022-09-25T08:00:39;17.60;99.90
42099;DHT22;27758;55.900;8.516;2022-09-25T08:03:06;17.90;99.90
42099;DHT22;27758;55.900;8.516;2022-09-25T08:05:33;18.00;99.90
42099;DHT22;27758;55.900;8.516;2022-09-25T08:07:58;18.10;99.90
42099;DHT22;27758;55.900;8.516;2022-09-25T08:10:24;18.40;99.90
42099;DHT22;27758;55.900;8.516;2022-09-25T08:12:50;18.70;99.90
42099;DHT22;27758;55.900;8.516;2022-09-25T08:15:16;19.00;99.90
42099;DHT22;27758;55.900;8.516;2022-09-25T08:17:42;19.30;99.90
42099;DHT22;27758;55.900;8.516;2022-09-25T08:20:08;19.30;99.90
42099;DHT22;27758;55.900;8.516;2022-09-25T08:22:34;19.40;99.90
42099;DHT22;27758;55.900;8.516;2022-09-25T08:25:00;19.40;99.90
42099;DHT22;27758;55.900;8.516;2022-09-25T08:27:30;19.70;99.90
42099;DHT22;27758;55.900;8.516;2022-09-25T08:29:56;20.10;99.90
42099;DHT22;27758;55.900;8.516;2022-09-25T08:32:22;20.40;99.90
42099;DHT22;27758;55.900;8.516;2022-09-25T08:34:48;20.50;99.90
42099;DHT22;27758;55.900;8.516;2022-09-25T08:37:14;20.50;99.90
42099;DHT22;27758;55.900;8.516;2022-09-25T08:39:41;20.50;99.90
42099;DHT22;27758;55.900;8.516;2022-09-25T08:42:18;20.80;99.90
42099;DHT22;27758;55.900;8.516;2022-09-25T08:44:49;21.00;99.90
42099;DHT22;27758;55.900;8.516;2022-09-25T08:47:37;21.10;99.90
42099;DHT22;27758;55.900;8.516;2022-09-25T08:50:24;21.30;99.90
42099;DHT22;27758;55.900;8.516;2022-09-25T08:53:03;21.20;99.90
42099;DHT22;27758;55.900;8.516;2022-09-25T08:55:33;21.10;99.90
42099;DHT22;27758;55.900;8.516;2022-09-25T08:58:30;21.20;99.90
42099;DHT22;27758;55.900;8.516;2022-09-25T09:01:07;21.50;99.90
42099;DHT22;27758;55.900;8.516;2022-09-25T09:03:39;21.80;99.90
42099;DHT22;27758;55.900;8.516;2022-09-25T09:06:11;21.80;99.90
42099;DHT22;27758;55.900;8.516;2022-09-25T09:08:40;22.20;99.90
42099;DHT22;27758;55.900;8.516;2022-09-25T09:11:22;22.50;99.90
42099;DHT22;27758;55.900;8.516;2022-09-25T09:18:47;23.00;99.90
42099;DHT22;27758;55.900;8.516;2022-09-25T09:21:26;22.70;99.90
42099;DHT22;27758;55.900;8.516;2022-09-25T09:24:26;22.30;99.90
42099;DHT22;27758;55.900;8.516;2022-09-25T09:27:09;21.80;99.90
42099;DHT22;27758;55.900;8.516;2022-09-25T09:32:37;20.90;99.90
42099;DHT22;27758;55.900;8.516;2022-09-25T09:41:17;21.10;99.90
42099;DHT22;27758;55.900;8.516;2022-09-25T09:44:10;21.50;99.90
42099;DHT22;27758;55.900;8.516;2022-09-25T09:46:52;21.10;99.90
42099;DHT22;27758;55.900;8.516;2022-09-25T09:52:11;21.20;99.90
42099;DHT22;27758;55.900;8.516;2022-09-25T09:57:49;22.40;99.90
42099;DHT22;27758;55.900;8.516;2022-09-25T10:00:14;22.40;99.90
42099;DHT22;27758;55.900;8.516;2022-09-25T10:03:13;22.30;99.90
42099;DHT22;27758;55.900;8.516;2022-09-25T10:05:46;22.60;99.90
42099;DHT22;27758;55.900;8.516;2022-09-25T10:08:12;22.90;99.90
42099;DHT22;27758;55.900;8.516;2022-09-25T10:10:42;22.90;99.90
42099;DHT22;27758;55.900;8.516;2022-09-25T10:13:22;23.10;99.90
42099;DHT22;27758;55.900;8.516;2022-09-25T10:15:57;23.10;99.90
42099;DHT22;27758;55.900;8.516;2022-09-25T10:18:27;23.50;99.90
42099;DHT22;27758;55.900;8.516;2022-09-25T10:20:58;23.60;99.90
42099;DHT22;27758;55.900;8.516;2022-09-25T10:25:58;24.50;99.70
42099;DHT22;27758;55.900;8.516;2022-09-25T10:28:25;24.10;98.70
42099;DHT22;27758;55.900;8.516;2022-09-25T10:30:52;23.70;99.10
42099;DHT22;27758;55.900;8.516;2022-09-25T10:33:20;23.20;99.60
42099;DHT22;27758;55.900;8.516;2022-09-25T10:35:47;23.10;99.40
42099;DHT22;27758;55.900;8.516;2022-09-25T10:41:13;23.30;99.40
42099;DHT22;27758;55.900;8.516;2022-09-25T10:43:55;23.30;99.70
42099;DHT22;27758;55.900;8.516;2022-09-25T10:46:34;23.30;99.90
42099;DHT22;27758;55.900;8.516;2022-09-25T10:49:21;23.30;99.60
42099;DHT22;27758;55.900;8.516;2022-09-25T10:52:10;22.80;99.90
42099;DHT22;27758;55.900;8.516;2022-09-25T10:54:36;22.40;99.90
42099;DHT22;27758;55.900;8.516;2022-09-25T10:57:30;21.70;99.90
42099;DHT22;27758;55.900;8.516;2022-09-25T11:00:00;21.10;99.90
42099;DHT22;27758;55.900;8.516;2022-09-25T11:02:37;21.60;99.90
42099;DHT22;27758;55.900;8.516;2022-09-25T11:05:06;21.70;99.90
42099;DHT22;27758;55.900;8.516;2022-09-25T11:07:46;21.70;99.90
42099;DHT22;27758;55.900;8.516;2022-09-25T11:10:27;22.20;99.90
42099;DHT22;27758;55.900;8.516;2022-09-25T11:12:53;22.70;99.90
42099;DHT22;27758;55.900;8.516;2022-09-25T11:15:23;22.90;99.90
42099;DHT22;27758;55.900;8.516;2022-09-25T11:17:52;22.90;99.90
42099;DHT22;27758;55.900;8.516;2022-09-25T11:20:21;23.00;99.90
42099;DHT22;27758;55.900;8.516;2022-09-25T11:25:44;23.10;99.90
42099;DHT22;27758;55.900;8.516;2022-09-25T11:28:29;22.90;99.90
42099;DHT22;27758;55.900;8.516;2022-09-25T11:36:18;23.30;99.90
42099;DHT22;27758;55.900;8.516;2022-09-25T11:41:55;23.70;99.90
42099;DHT22;27758;55.900;8.516;2022-09-25T11:49:28;22.50;99.90
42099;DHT22;27758;55.900;8.516;2022-09-25T11:52:18;22.00;99.70
42099;DHT22;27758;55.900;8.516;2022-09-25T12:00:03;21.70;99.90
42099;DHT22;27758;55.900;8.516;2022-09-25T12:02:43;22.10;99.90
42099;DHT22;27758;55.900;8.516;2022-09-25T12:10:25;21.50;99.90
42099;DHT22;27758;55.900;8.516;2022-09-25T12:13:23;20.90;99.90
42099;DHT22;27758;55.900;8.516;2022-09-25T12:21:19;19.70;99.90
42099;DHT22;27758;55.900;8.516;2022-09-25T12:26:54;19.20;99.90
42099;DHT22;27758;55.900;8.516;2022-09-25T12:35:23;19.50;99.90
42099;DHT22;27758;55.900;8.516;2022-09-25T12:38:21;20.00;99.90
42099;DHT22;27758;55.900;8.516;2022-09-25T12:40:52;20.20;99.90
42099;DHT22;27758;55.900;8.516;2022-09-25T12:43:27;19.90;99.90
42099;DHT22;27758;55.900;8.516;2022-09-25T12:48:46;19.20;99.90
42099;DHT22;27758;55.900;8.516;2022-09-25T12:51:37;18.60;99.90
42099;DHT22;27758;55.900;8.516;2022-09-25T13:00:07;17.50;99.90
42099;DHT22;27758;55.900;8.516;2022-09-25T13:08:31;17.50;99.90
42099;DHT22;27758;55.900;8.516;2022-09-25T13:11:05;17.50;99.90
42099;DHT22;27758;55.900;8.516;2022-09-25T13:13:41;17.30;99.90
42099;DHT22;27758;55.900;8.516;2022-09-25T13:16:10;17.10;99.90
42099;DHT22;27758;55.900;8.516;2022-09-25T13:18:45;16.90;99.90
42099;DHT22;27758;55.900;8.516;2022-09-25T13:21:29;16.70;99.90
42099;DHT22;27758;55.900;8.516;2022-09-25T13:23:56;16.70;99.90
42099;DHT22;27758;55.900;8.516;2022-09-25T13:26:23;16.80;99.90
42099;DHT22;27758;55.900;8.516;2022-09-25T13:28:56;16.90;99.90
42099;DHT22;27758;55.900;8.516;2022-09-25T13:31:31;17.30;99.90
42099;DHT22;27758;55.900;8.516;2022-09-25T13:34:09;17.70;99.90
42099;DHT22;27758;55.900;8.516;2022-09-25T13:39:26;17.60;99.90
42099;DHT22;27758;55.900;8.516;2022-09-25T13:48:01;17.70;99.90
42099;DHT22;27758;55.900;8.516;2022-09-25T13:50:39;17.70;99.90
42099;DHT22;27758;55.900;8.516;2022-09-25T13:58:23;17.30;99.90
42099;DHT22;27758;55.900;8.516;2022-09-25T14:03:42;17.00;99.90
42099;DHT22;27758;55.900;8.516;2022-09-25T14:06:23;16.70;99.90
42099;DHT22;27758;55.900;8.516;2022-09-25T14:08:53;16.80;99.90
42099;DHT22;27758;55.900;8.516;2022-09-25T14:11:24;16.70;99.90
42099;DHT22;27758;55.900;8.516;2022-09-25T14:13:52;16.70;99.90
42099;DHT22;27758;55.900;8.516;2022-09-25T14:16:42;17.00;99.90
42099;DHT22;27758;55.900;8.516;2022-09-25T14:19:07;17.30;99.90
42099;DHT22;27758;55.900;8.516;2022-09-25T14:21:33;17.40;99.90
42099;DHT22;27758;55.900;8.516;2022-09-25T14:24:18;17.30;99.90
42099;DHT22;27758;55.900;8.516;2022-09-25T14:26:45;17.30;99.90
42099;DHT22;27758;55.900;8.516;2022-09-25T14:29:22;17.40;99.90
42099;DHT22;27758;55.900;8.516;2022-09-25T14:34:34;17.50;99.90
42099;DHT22;27758;55.900;8.516;2022-09-25T14:37:45;17.40;99.90
42099;DHT22;27758;55.900;8.516;2022-09-25T14:40:28;17.30;99.90
42099;DHT22;27758;55.900;8.516;2022-09-25T14:46:11;17.20;99.90
42099;DHT22;27758;55.900;8.516;2022-09-25T14:48:56;17.20;99.90
42099;DHT22;27758;55.900;8.516;2022-09-25T14:53:57;17.10;99.90
42099;DHT22;27758;55.900;8.516;2022-09-25T14:56:24;17.10;99.90
42099;DHT22;27758;55.900;8.516;2022-09-25T14:58:53;17.00;99.90
42099;DHT22;27758;55.900;8.516;2022-09-25T15:01:28;16.90;99.90
42099;DHT22;27758;55.900;8.516;2022-09-25T15:04:01;17.00;99.90
42099;DHT22;27758;55.900;8.516;2022-09-25T15:06:37;17.00;99.90
42099;DHT22;27758;55.900;8.516;2022-09-25T15:11:54;16.80;99.90
42099;DHT22;27758;55.900;8.516;2022-09-25T15:14:20;16.70;99.90
42099;DHT22;27758;55.900;8.516;2022-09-25T15:16:47;16.60;99.90
42099;DHT22;27758;55.900;8.516;2022-09-25T15:19:35;16.50;99.90
42099;DHT22;27758;55.900;8.516;2022-09-25T15:22:10;16.30;99.90
42099;DHT22;27758;55.900;8.516;2022-09-25T15:24:39;16.10;99.90
42099;DHT22;27758;55.900;8.516;2022-09-25T15:27:12;15.90;99.90
42099;DHT22;27758;55.900;8.516;2022-09-25T15:29:42;15.70;99.90
42099;DHT22;27758;55.900;8.516;2022-09-25T15:32:33;15.60;99.90
42099;DHT22;27758;55.900;8.516;2022-09-25T15:35:15;15.50;99.90
42099;DHT22;27758;55.900;8.516;2022-09-25T15:37:43;15.40;99.90
42099;DHT22;27758;55.900;8.516;2022-09-25T15:42:46;15.30;99.90
42099;DHT22;27758;55.900;8.516;2022-09-25T15:45:40;15.20;99.90
42099;DHT22;27758;55.900;8.516;2022-09-25T15:48:18;15.10;99.90
42099;DHT22;27758;55.900;8.516;2022-09-25T15:50:46;15.00;99.90
42099;DHT22;27758;55.900;8.516;2022-09-25T15:53:31;15.00;99.90
42099;DHT22;27758;55.900;8.516;2022-09-25T15:56:15;14.90;99.90
42099;DHT22;27758;55.900;8.516;2022-09-25T15:58:49;14.80;99.90
42099;DHT22;27758;55.900;8.516;2022-09-25T16:01:20;14.70;99.90
42099;DHT22;27758;55.900;8.516;2022-09-25T16:04:08;14.60;99.90
42099;DHT22;27758;55.900;8.516;2022-09-25T16:06:53;14.60;99.90
42099;DHT22;27758;55.900;8.516;2022-09-25T16:09:28;14.50;99.90
42099;DHT22;27758;55.900;8.516;2022-09-25T16:12:31;14.50;99.90
42099;DHT22;27758;55.900;8.516;2022-09-25T16:15:34;14.40;99.90
42099;DHT22;27758;55.900;8.516;2022-09-25T16:17:51;14.30;99.90
42099;DHT22;27758;55.900;8.516;2022-09-25T16:22:50;14.30;99.90
42099;DHT22;27758;55.900;8.516;2022-09-25T16:25:33;14.20;99.90
42099;DHT22;27758;55.900;8.516;2022-09-25T16:28:15;14.20;99.90
42099;DHT22;27758;55.900;8.516;2022-09-25T16:31:03;14.20;99.90
42099;DHT22;27758;55.900;8.516;2022-09-25T16:33:35;14.10;99.90
42099;DHT22;27758;55.900;8.516;2022-09-25T16:36:06;14.10;99.90
42099;DHT22;27758;55.900;8.516;2022-09-25T16:38:33;14.10;99.90
42099;DHT22;27758;55.900;8.516;2022-09-25T16:43:41;14.00;99.90
42099;DHT22;27758;55.900;8.516;2022-09-25T16:46:18;13.90;99.90
42099;DHT22;27758;55.900;8.516;2022-09-25T16:48:57;13.90;99.90
42099;DHT22;27758;55.900;8.516;2022-09-25T16:51:24;13.90;99.90
42099;DHT22;27758;55.900;8.516;2022-09-25T16:53:56;13.80;99.90
42099;DHT22;27758;55.900;8.516;2022-09-25T16:56:28;13.70;99.90
42099;DHT22;27758;55.900;8.516;2022-09-25T16:58:54;13.70;99.90
42099;DHT22;27758;55.900;8.516;2022-09-25T17:01:22;13.60;99.90
42099;DHT22;27758;55.900;8.516;2022-09-25T17:03:49;13.60;99.90
42099;DHT22;27758;55.900;8.516;2022-09-25T17:06:19;13.60;99.90
42099;DHT22;27758;55.900;8.516;2022-09-25T17:08:46;13.50;99.90
42099;DHT22;27758;55.900;8.516;2022-09-25T17:11:13;13.50;99.90
42099;DHT22;27758;55.900;8.516;2022-09-25T17:13:41;13.40;99.90
42099;DHT22;27758;55.900;8.516;2022-09-25T17:16:07;13.30;99.90
42099;DHT22;27758;55.900;8.516;2022-09-25T17:18:34;13.30;99.90
42099;DHT22;27758;55.900;8.516;2022-09-25T17:21:02;13.30;99.90
42099;DHT22;27758;55.900;8.516;2022-09-25T17:23:28;13.30;99.90
42099;DHT22;27758;55.900;8.516;2022-09-25T17:26:03;13.30;99.90
42099;DHT22;27758;55.900;8.516;2022-09-25T17:28:29;13.20;99.90
42099;DHT22;27758;55.900;8.516;2022-09-25T17:30:58;13.10;99.90
42099;DHT22;27758;55.900;8.516;2022-09-25T17:33:25;13.10;99.90
42099;DHT22;27758;55.900;8.516;2022-09-25T17:36:04;13.10;99.90
42099;DHT22;27758;55.900;8.516;2022-09-25T17:38:33;13.10;99.90
42099;DHT22;27758;55.900;8.516;2022-09-25T17:41:00;13.00;99.90
42099;DHT22;27758;55.900;8.516;2022-09-25T17:43:27;13.00;99.90
42099;DHT22;27758;55.900;8.516;2022-09-25T17:45:54;12.90;99.90
42099;DHT22;27758;55.900;8.516;2022-09-25T17:48:26;12.90;99.90
42099;DHT22;27758;55.900;8.516;2022-09-25T17:53:27;12.70;99.90
42099;DHT22;27758;55.900;8.516;2022-09-25T17:55:55;12.60;99.90
42099;DHT22;27758;55.900;8.516;2022-09-25T17:58:24;12.60;99.90
42099;DHT22;27758;55.900;8.516;2022-09-25T18:00:51;12.60;99.90
42099;DHT22;27758;55.900;8.516;2022-09-25T18:03:18;12.50;99.90
42099;DHT22;27758;55.900;8.516;2022-09-25T18:05:44;12.40;99.90
42099;DHT22;27758;55.900;8.516;2022-09-25T18:08:11;12.40;99.90
42099;DHT22;27758;55.900;8.516;2022-09-25T18:10:37;12.40;99.90
42099;DHT22;27758;55.900;8.516;2022-09-25T18:13:05;12.40;99.90
42099;DHT22;27758;55.900;8.516;2022-09-25T18:15:32;12.30;99.90
42099;DHT22;27758;55.900;8.516;2022-09-25T18:17:58;12.20;99.90
42099;DHT22;27758;55.900;8.516;2022-09-25T18:20:25;12.10;99.90
42099;DHT22;27758;55.900;8.516;2022-09-25T18:23:09;12.20;99.90
42099;DHT22;27758;55.900;8.516;2022-09-25T18:25:38;12.20;99.90
42099;DHT22;27758;55.900;8.516;2022-09-25T18:28:05;12.20;99.90
42099;DHT22;27758;55.900;8.516;2022-09-25T18:30:30;12.10;99.90
42099;DHT22;27758;55.900;8.516;2022-09-25T18:32:56;12.00;99.90
42099;DHT22;27758;55.900;8.516;2022-09-25T18:35:22;12.10;99.90
42099;DHT22;27758;55.900;8.516;2022-09-25T18:37:48;12.00;99.90